createdAt,value
2018-09-05T00:01:49.672Z,16.80
2018-09-05T00:04:18.498Z,20.70
2018-09-05T00:06:46.955Z,19.00
2018-09-05T00:09:15.442Z,17.67
2018-09-05T00:11:44.303Z,17.20
2018-09-05T00:14:12.747Z,17.23
2018-09-05T00:16:41.202Z,15.60
2018-09-05T00:19:09.675Z,17.27
2018-09-05T00:21:38.145Z,18.53
2018-09-05T00:24:06.642Z,15.83
2018-09-05T00:26:35.167Z,18.97
2018-09-05T00:29:03.604Z,18.37
2018-09-05T00:31:32.111Z,17.07
2018-09-05T00:34:00.598Z,17.60
2018-09-05T00:36:29.071Z,19.27
2018-09-05T00:38:58.137Z,16.13
2018-09-05T00:41:26.615Z,20.07
2018-09-05T00:43:55.023Z,18.03
2018-09-05T00:46:23.842Z,20.17
2018-09-05T00:48:52.552Z,18.00
2018-09-05T00:51:21.021Z,20.17
2018-09-05T00:53:49.460Z,16.40
2018-09-05T00:56:18.228Z,18.47
2018-09-05T00:58:46.931Z,19.50
2018-09-05T01:01:15.414Z,25.93
2018-09-05T01:03:44.182Z,20.87
2018-09-05T01:06:12.873Z,18.50
2018-09-05T01:08:41.326Z,20.37
2018-09-05T01:11:10.068Z,20.20
2018-09-05T01:13:38.623Z,18.57
2018-09-05T01:16:07.407Z,15.87
2018-09-05T01:18:35.835Z,21.13
2018-09-05T01:21:04.364Z,20.17
2018-09-05T01:23:33.157Z,20.93
2018-09-05T01:26:01.634Z,20.73
2018-09-05T01:28:30.075Z,22.20
2018-09-05T01:30:58.563Z,24.13
2018-09-05T01:33:27.046Z,22.87
2018-09-05T01:36:00.846Z,20.90
2018-09-05T01:38:30.071Z,18.00
2018-09-05T01:40:58.492Z,19.50
2018-09-05T01:43:26.958Z,20.00
2018-09-05T01:45:55.472Z,18.93
2018-09-05T01:48:24.291Z,19.30
2018-09-05T01:50:52.864Z,20.53
2018-09-05T01:53:21.358Z,20.00
2018-09-05T01:55:49.856Z,17.33
2018-09-05T01:58:18.419Z,21.10
2018-09-05T02:00:47.039Z,18.37
2018-09-05T02:03:15.572Z,19.10
2018-09-05T02:05:44.050Z,18.67
2018-09-05T02:08:12.567Z,18.20
2018-09-05T02:10:41.062Z,21.00
2018-09-05T02:13:09.598Z,19.50
2018-09-05T02:15:38.104Z,21.87
2018-09-05T02:18:06.633Z,19.90
2018-09-05T02:20:35.119Z,23.43
2018-09-05T02:23:03.644Z,23.67
2018-09-05T02:25:32.152Z,23.10
2018-09-05T02:28:00.967Z,22.03
2018-09-05T02:30:29.460Z,18.67
2018-09-05T02:32:58.550Z,18.43
2018-09-05T02:35:27.050Z,22.80
2018-09-05T02:37:55.606Z,23.83
2018-09-05T02:40:24.219Z,23.00
2018-09-05T02:42:52.710Z,19.07
2018-09-05T02:45:21.208Z,20.23
2018-09-05T02:47:49.733Z,18.87
2018-09-05T02:50:18.250Z,19.63
2018-09-05T02:52:46.747Z,19.80
2018-09-05T02:55:20.575Z,17.60
2018-09-05T02:57:49.079Z,16.60
2018-09-05T03:00:17.589Z,19.87
2018-09-05T03:02:46.102Z,19.73
2018-09-05T03:05:14.616Z,19.00
2018-09-05T03:07:43.184Z,18.80
2018-09-05T03:10:11.678Z,20.40
2018-09-05T03:12:40.224Z,20.00
2018-09-05T03:15:08.740Z,22.77
2018-09-05T03:17:37.279Z,22.80
2018-09-05T03:20:06.431Z,18.50
2018-09-05T03:22:35.275Z,20.43
2018-09-05T03:25:03.786Z,22.43
2018-09-05T03:27:32.332Z,22.00
2018-09-05T03:30:00.803Z,20.77
2018-09-05T03:32:29.423Z,23.27
2018-09-05T03:34:57.828Z,23.70
2018-09-05T03:37:26.451Z,21.90
2018-09-05T03:39:55.238Z,22.93
2018-09-05T03:42:23.817Z,22.70
2018-09-05T03:44:52.313Z,21.73
2018-09-05T03:47:20.833Z,22.43
2018-09-05T03:49:49.424Z,23.83
2018-09-05T03:52:17.899Z,21.70
2018-09-05T03:54:46.449Z,23.50
2018-09-05T03:57:14.926Z,26.50
2018-09-05T03:59:43.442Z,21.90
2018-09-05T04:02:11.923Z,21.70
2018-09-05T04:04:40.448Z,22.60
2018-09-05T04:07:08.972Z,23.90
2018-09-05T04:09:37.552Z,21.77
2018-09-05T04:12:06.146Z,28.93
2018-09-05T04:14:34.637Z,25.67
2018-09-05T04:17:03.126Z,26.50
2018-09-05T04:19:31.642Z,26.80
2018-09-05T04:22:00.399Z,25.33
2018-09-05T04:24:28.923Z,27.20
2018-09-05T04:26:57.398Z,28.63
2018-09-05T04:29:25.993Z,27.90
2018-09-05T04:31:55.126Z,31.03
2018-09-05T04:34:23.639Z,26.20
2018-09-05T04:36:52.119Z,27.57
2018-09-05T04:39:20.626Z,26.30
2018-09-05T04:41:49.172Z,28.73
2018-09-05T04:44:17.687Z,24.87
2018-09-05T04:46:46.175Z,21.87
2018-09-05T04:49:14.722Z,24.53
2018-09-05T04:51:43.226Z,24.93
2018-09-05T04:54:11.729Z,26.50
2018-09-05T04:56:40.224Z,27.47
2018-09-05T04:59:08.732Z,29.10
2018-09-05T05:01:37.542Z,24.27
2018-09-05T05:04:06.071Z,25.20
2018-09-05T05:06:34.575Z,19.53
2018-09-05T05:09:03.503Z,19.63
2018-09-05T05:11:32.319Z,24.20
2018-09-05T05:14:00.979Z,21.30
2018-09-05T05:16:29.506Z,25.53
2018-09-05T05:18:58.029Z,23.20
2018-09-05T05:21:26.545Z,20.20
2018-09-05T05:23:55.119Z,22.00
2018-09-05T05:26:23.591Z,22.93
2018-09-05T05:28:54.998Z,23.47
2018-09-05T05:31:23.463Z,19.83
2018-09-05T05:33:51.996Z,25.23
2018-09-05T05:36:20.544Z,21.40
2018-09-05T05:38:49.061Z,21.60
2018-09-05T05:41:17.543Z,20.17
2018-09-05T05:43:46.426Z,20.97
2018-09-05T05:46:15.005Z,21.93
2018-09-05T05:48:43.519Z,20.27
2018-09-05T05:51:12.002Z,23.43
2018-09-05T05:53:40.854Z,21.03
2018-09-05T05:56:09.338Z,23.27
2018-09-05T05:58:37.871Z,24.50
2018-09-05T06:01:06.431Z,21.83
2018-09-05T06:03:35.159Z,19.37
2018-09-05T06:06:03.819Z,16.47
2018-09-05T06:08:32.602Z,16.30
2018-09-05T06:11:01.180Z,22.03
2018-09-05T06:13:29.680Z,22.20
2018-09-05T06:15:58.200Z,21.40
2018-09-05T06:18:26.688Z,20.87
2018-09-05T06:20:55.251Z,18.90
2018-09-05T06:23:23.739Z,19.97
2018-09-05T06:25:52.263Z,23.20
2018-09-05T06:28:20.730Z,18.73
2018-09-05T06:30:49.264Z,18.83
2018-09-05T06:33:17.746Z,18.73
2018-09-05T06:35:46.619Z,21.53
2018-09-05T06:38:15.102Z,22.30
2018-09-05T06:40:43.896Z,22.73
2018-09-05T06:43:12.409Z,22.07
2018-09-05T06:45:41.219Z,20.60
2018-09-05T06:48:09.695Z,21.23
2018-09-05T06:50:38.194Z,22.37
2018-09-05T06:53:06.997Z,19.20
2018-09-05T06:55:35.511Z,21.07
2018-09-05T06:58:04.079Z,25.23
2018-09-05T07:00:32.649Z,22.00
2018-09-05T07:03:01.247Z,21.40
2018-09-05T07:05:29.832Z,22.90
2018-09-05T07:07:58.575Z,24.87
2018-09-05T07:10:27.327Z,21.73
2018-09-05T07:12:55.795Z,24.30
2018-09-05T07:15:24.342Z,20.80
2018-09-05T07:17:52.869Z,17.30
2018-09-05T07:20:21.379Z,18.33
2018-09-05T07:22:49.890Z,14.80
2018-09-05T07:25:18.468Z,22.07
2018-09-05T07:27:46.952Z,16.73
2018-09-05T07:30:16.971Z,16.63
2018-09-05T07:32:45.761Z,17.37
2018-09-05T07:35:14.601Z,16.23
2018-09-05T07:37:43.091Z,16.93
2018-09-05T07:40:11.778Z,17.23
2018-09-05T07:42:40.243Z,16.97
2018-09-05T07:45:08.833Z,16.67
2018-09-05T07:47:37.394Z,19.47
2018-09-05T07:50:06.306Z,17.57
2018-09-05T07:52:38.153Z,16.97
2018-09-05T07:55:06.967Z,20.43
2018-09-05T07:57:35.464Z,14.30
2018-09-05T08:00:04.060Z,15.70
2018-09-05T08:02:32.608Z,16.10
2018-09-05T08:05:01.136Z,17.93
2018-09-05T08:07:29.670Z,24.27
2018-09-05T08:09:58.160Z,15.83
2018-09-05T08:12:26.645Z,17.53
2018-09-05T08:14:55.119Z,16.03
2018-09-05T08:17:23.707Z,17.60
2018-09-05T08:19:52.198Z,16.80
2018-09-05T08:22:20.691Z,16.50
2018-09-05T08:24:49.282Z,17.03
2018-09-05T08:27:21.462Z,16.57
2018-09-05T08:29:50.347Z,17.30
2018-09-05T08:32:18.867Z,19.73
2018-09-05T08:34:47.655Z,20.73
2018-09-05T08:37:16.367Z,15.60
2018-09-05T08:39:44.695Z,15.47
2018-09-05T08:42:13.402Z,16.50
2018-09-05T08:44:41.982Z,14.93
2018-09-05T08:47:10.424Z,16.73
2018-09-05T08:49:38.912Z,15.73
2018-09-05T08:52:07.399Z,17.43
2018-09-05T08:54:35.936Z,16.23
2018-09-05T08:57:04.475Z,21.00
2018-09-05T08:59:32.958Z,19.63
2018-09-05T09:02:01.512Z,16.10
2018-09-05T09:04:30.029Z,16.27
2018-09-05T09:06:58.547Z,17.00
2018-09-05T09:09:27.024Z,15.90
2018-09-05T09:11:55.810Z,15.40
2018-09-05T09:14:24.292Z,18.33
2018-09-05T09:16:52.883Z,16.47
2018-09-05T09:19:21.426Z,17.40
2018-09-05T09:21:49.948Z,15.20
2018-09-05T09:24:18.523Z,16.20
2018-09-05T09:26:47.036Z,20.00
2018-09-05T09:29:15.536Z,16.13
2018-09-05T09:31:44.080Z,16.13
2018-09-05T09:34:12.546Z,17.70
2018-09-05T09:36:41.031Z,18.83
2018-09-05T09:39:10.674Z,17.77
2018-09-05T09:41:39.263Z,16.97
2018-09-05T09:44:07.755Z,17.53
2018-09-05T09:46:36.913Z,19.80
2018-09-05T09:49:05.659Z,23.47
2018-09-05T09:51:34.180Z,17.43
2018-09-05T09:54:02.668Z,21.67
2018-09-05T09:56:31.220Z,17.47
2018-09-05T09:58:59.684Z,21.87
2018-09-05T10:01:33.567Z,17.67
2018-09-05T10:04:07.490Z,18.23
2018-09-05T10:06:41.482Z,16.63
2018-09-05T10:09:15.244Z,21.40
2018-09-05T10:11:49.157Z,16.50
2018-09-05T10:14:22.943Z,15.30
2018-09-05T10:16:56.945Z,16.10
2018-09-05T10:19:25.460Z,17.00
2018-09-05T10:21:54.970Z,19.67
2018-09-05T10:24:23.731Z,14.70
2018-09-05T10:26:52.902Z,15.77
2018-09-05T10:29:21.396Z,15.70
2018-09-05T10:31:50.557Z,11.70
2018-09-05T10:34:19.021Z,13.37
2018-09-05T10:36:47.559Z,13.57
2018-09-05T10:39:18.640Z,14.27
2018-09-05T10:41:47.151Z,12.83
2018-09-05T10:44:15.709Z,12.53
2018-09-05T10:46:44.606Z,12.10
2018-09-05T10:49:13.132Z,13.50
2018-09-05T10:51:46.942Z,12.47
2018-09-05T10:54:15.517Z,12.57
2018-09-05T10:56:44.282Z,12.40
2018-09-05T10:59:13.082Z,12.27
2018-09-05T11:01:41.650Z,12.40
2018-09-05T11:04:13.065Z,13.23
2018-09-05T11:06:41.815Z,12.90
2018-09-05T11:09:11.531Z,13.80
2018-09-05T11:11:40.415Z,10.57
2018-09-05T11:14:09.995Z,13.60
2018-09-05T11:16:38.676Z,11.40
2018-09-05T11:19:07.592Z,11.63
2018-09-05T11:21:36.114Z,14.13
2018-09-05T11:24:04.647Z,11.63
2018-09-05T11:26:33.270Z,10.93
2018-09-05T11:29:06.959Z,10.43
2018-09-05T11:31:35.462Z,13.10
2018-09-05T11:34:04.019Z,11.00
2018-09-05T11:36:32.511Z,12.33
2018-09-05T11:39:01.001Z,11.50
2018-09-05T11:41:29.496Z,10.30
2018-09-05T11:43:58.047Z,11.17
2018-09-05T11:46:26.528Z,9.97
2018-09-05T11:48:55.023Z,30.13
2018-09-05T11:51:23.759Z,10.97
2018-09-05T11:53:52.262Z,10.17
2018-09-05T11:56:20.721Z,11.93
2018-09-05T11:58:49.247Z,11.03
2018-09-05T12:01:17.731Z,10.93
2018-09-05T12:03:46.248Z,8.50
2018-09-05T12:06:14.720Z,14.00
2018-09-05T12:08:43.202Z,9.30
2018-09-05T12:11:12.052Z,9.70
2018-09-05T12:13:40.571Z,9.17
2018-09-05T12:16:09.028Z,10.23
2018-09-05T12:18:37.554Z,11.50
2018-09-05T12:21:06.031Z,9.60
2018-09-05T12:23:34.640Z,12.20
2018-09-05T12:26:03.172Z,9.70
2018-09-05T12:28:31.700Z,8.10
2018-09-05T12:31:00.186Z,9.80
2018-09-05T12:33:28.687Z,9.10
2018-09-05T12:35:57.176Z,10.90
2018-09-05T12:38:25.719Z,9.00
2018-09-05T12:40:54.215Z,11.13
2018-09-05T12:43:22.920Z,9.40
2018-09-05T12:45:51.419Z,13.47
2018-09-05T12:48:20.254Z,9.73
2018-09-05T12:50:48.705Z,8.73
2018-09-05T12:53:17.227Z,9.63
2018-09-05T12:55:50.816Z,9.83
2018-09-05T12:58:19.934Z,9.93
2018-09-05T13:00:48.450Z,10.63
2018-09-05T13:03:16.967Z,9.40
2018-09-05T13:05:45.463Z,8.63
2018-09-05T13:08:14.000Z,9.43
2018-09-05T13:10:42.479Z,8.63
2018-09-05T13:13:10.953Z,8.90
2018-09-05T13:15:39.501Z,9.23
2018-09-05T13:18:08.343Z,10.93
2018-09-05T13:20:36.842Z,8.60
2018-09-05T13:23:05.378Z,8.33
2018-09-05T13:25:33.888Z,8.20
2018-09-05T13:28:02.355Z,10.30
2018-09-05T13:30:31.147Z,7.67
2018-09-05T13:32:59.662Z,9.53
2018-09-05T13:35:28.259Z,8.90
2018-09-05T13:37:56.748Z,8.57
2018-09-05T13:40:25.327Z,8.80
2018-09-05T13:42:53.819Z,8.30
2018-09-05T13:45:22.377Z,9.90
2018-09-05T13:47:50.911Z,8.00
2018-09-05T13:50:19.425Z,9.10
2018-09-05T13:52:47.956Z,8.40
2018-09-05T13:55:16.489Z,8.70
2018-09-05T13:57:45.586Z,8.67
2018-09-05T14:00:15.563Z,13.30
2018-09-05T14:02:45.809Z,8.17
2018-09-05T14:05:14.790Z,7.73
2018-09-05T14:07:44.055Z,14.10
2018-09-05T14:10:13.284Z,14.73
2018-09-05T14:12:41.847Z,9.20
2018-09-05T14:15:10.345Z,16.60
2018-09-05T14:17:38.835Z,7.80
2018-09-05T14:20:07.444Z,9.93
2018-09-05T14:22:35.955Z,9.23
2018-09-05T14:25:04.590Z,8.90
2018-09-05T14:27:33.475Z,7.60
2018-09-05T14:30:02.257Z,11.97
2018-09-05T14:32:30.758Z,8.47
2018-09-05T14:35:05.860Z,8.57
2018-09-05T14:37:34.319Z,6.60
2018-09-05T14:40:02.888Z,10.00
2018-09-05T14:42:31.327Z,7.27
2018-09-05T14:44:59.827Z,8.07
2018-09-05T14:47:28.319Z,11.07
2018-09-05T14:49:56.809Z,9.70
2018-09-05T14:52:25.310Z,7.30
2018-09-05T14:54:53.973Z,8.90
2018-09-05T14:57:22.460Z,10.10
2018-09-05T14:59:50.977Z,9.77
2018-09-05T15:02:19.835Z,8.90
2018-09-05T15:04:48.691Z,8.97
2018-09-05T15:07:17.266Z,10.13
2018-09-05T15:09:45.780Z,8.10
2018-09-05T15:12:14.259Z,9.23
2018-09-05T15:14:43.054Z,9.53
2018-09-05T15:17:11.838Z,8.53
2018-09-05T15:19:40.439Z,10.13
2018-09-05T15:22:08.991Z,9.40
2018-09-05T15:24:37.544Z,9.43
2018-09-05T15:27:06.903Z,9.73
2018-09-05T15:29:35.384Z,10.03
2018-09-05T15:32:03.881Z,7.60
2018-09-05T15:34:32.374Z,8.63
2018-09-05T15:37:01.091Z,12.07
2018-09-05T15:39:29.590Z,9.20
2018-09-05T15:41:58.097Z,9.33
2018-09-05T15:44:26.607Z,10.40
2018-09-05T15:46:55.160Z,8.07
2018-09-05T15:49:23.899Z,10.50
2018-09-05T15:51:54.898Z,7.87
2018-09-05T15:54:24.308Z,10.40
2018-09-05T15:56:53.321Z,8.20
2018-09-05T15:59:22.489Z,9.53
2018-09-05T16:01:51.062Z,8.00
2018-09-05T16:04:19.563Z,9.73
2018-09-05T16:06:48.051Z,9.23
2018-09-05T16:09:16.882Z,16.73
2018-09-05T16:11:45.641Z,9.93
2018-09-05T16:14:14.102Z,9.37
2018-09-05T16:16:42.590Z,8.97
2018-09-05T16:19:11.068Z,8.33
2018-09-05T16:21:39.995Z,10.40
2018-09-05T16:24:08.501Z,11.10
2018-09-05T16:26:37.038Z,9.80
2018-09-05T16:29:05.532Z,10.00
2018-09-05T16:31:34.046Z,8.77
2018-09-05T16:34:02.566Z,11.40
2018-09-05T16:36:31.376Z,9.33
2018-09-05T16:39:00.202Z,9.80
2018-09-05T16:41:28.977Z,8.80
2018-09-05T16:44:00.569Z,9.37
2018-09-05T16:46:29.090Z,9.30
2018-09-05T16:48:57.587Z,7.77
2018-09-05T16:51:26.076Z,10.00
2018-09-05T16:53:54.597Z,9.00
2018-09-05T16:56:23.470Z,11.37
2018-09-05T16:58:51.995Z,10.03
2018-09-05T17:01:20.527Z,10.93
2018-09-05T17:03:48.982Z,10.40
2018-09-05T17:06:17.495Z,14.60
2018-09-05T17:08:45.994Z,8.67
2018-09-05T17:11:14.612Z,8.40
2018-09-05T17:13:43.286Z,8.30
2018-09-05T17:16:11.794Z,8.57
2018-09-05T17:18:40.267Z,9.00
2018-09-05T17:21:08.778Z,9.27
2018-09-05T17:23:37.267Z,8.33
2018-09-05T17:26:05.772Z,9.40
2018-09-05T17:28:34.342Z,11.13
2018-09-05T17:31:03.280Z,9.20
2018-09-05T17:33:31.767Z,9.43
2018-09-05T17:36:00.393Z,9.03
2018-09-05T17:38:28.939Z,8.60
2018-09-05T17:40:57.533Z,8.23
2018-09-05T17:43:26.239Z,10.73
2018-09-05T17:45:54.807Z,8.93
2018-09-05T17:48:23.574Z,11.33
2018-09-05T17:50:52.094Z,9.27
2018-09-05T17:53:20.615Z,8.43
2018-09-05T17:55:49.724Z,8.60
2018-09-05T17:58:18.293Z,13.27
2018-09-05T18:00:47.301Z,8.60
2018-09-05T18:03:16.383Z,12.40
2018-09-05T18:05:44.958Z,7.37
2018-09-05T18:08:13.650Z,8.97
2018-09-05T18:10:42.231Z,8.03
2018-09-05T18:13:10.836Z,9.40
2018-09-05T18:15:39.597Z,9.43
2018-09-05T18:18:08.113Z,8.53
2018-09-05T18:20:36.664Z,7.70
2018-09-05T18:23:05.310Z,9.13
2018-09-05T18:25:34.336Z,10.07
2018-09-05T18:28:03.000Z,8.27
2018-09-05T18:30:31.514Z,9.60
2018-09-05T18:33:00.047Z,8.40
2018-09-05T18:35:28.547Z,8.30
2018-09-05T18:37:57.074Z,8.47
2018-09-05T18:40:25.559Z,8.07
2018-09-05T18:42:54.377Z,10.90
2018-09-05T18:45:22.879Z,10.93
2018-09-05T18:47:51.447Z,9.33
2018-09-05T18:50:19.936Z,11.63
2018-09-05T18:52:48.488Z,9.80
2018-09-05T18:55:16.981Z,9.40
2018-09-05T18:57:45.537Z,12.73
2018-09-05T19:00:14.042Z,9.57
2018-09-05T19:02:42.545Z,8.20
2018-09-05T19:05:11.006Z,8.53
2018-09-05T19:07:39.514Z,9.50
2018-09-05T19:10:08.001Z,10.07
2018-09-05T19:12:36.526Z,9.40
2018-09-05T19:15:05.363Z,8.10
2018-09-05T19:17:34.117Z,9.07
2018-09-05T19:20:02.959Z,9.20
2018-09-05T19:22:31.953Z,8.60
2018-09-05T19:25:00.387Z,10.17
2018-09-05T19:27:28.891Z,11.33
2018-09-05T19:29:57.347Z,9.10
2018-09-05T19:32:25.937Z,7.80
2018-09-05T19:34:54.427Z,12.33
2018-09-05T19:37:22.956Z,9.47
2018-09-05T19:39:51.440Z,8.30
2018-09-05T19:42:20.038Z,10.20
2018-09-05T19:44:48.469Z,9.93
2018-09-05T19:47:18.096Z,10.30
2018-09-05T19:49:47.117Z,13.80
2018-09-05T19:52:15.650Z,10.33
2018-09-05T19:54:44.143Z,8.63
2018-09-05T19:57:12.674Z,10.10
2018-09-05T19:59:42.140Z,10.40
2018-09-05T20:02:12.635Z,9.40
2018-09-05T20:04:42.519Z,9.93
2018-09-05T20:07:11.618Z,8.90
2018-09-05T20:09:41.831Z,10.27
2018-09-05T20:12:12.409Z,9.40
2018-09-05T20:14:42.217Z,9.40
2018-09-05T20:17:12.529Z,8.90
2018-09-05T20:19:43.147Z,10.50
2018-09-05T20:22:13.082Z,8.60
2018-09-05T20:24:43.549Z,9.60
2018-09-05T20:27:14.475Z,17.13
2018-09-05T20:29:45.286Z,8.87
2018-09-05T20:32:16.377Z,8.40
2018-09-05T20:34:44.917Z,8.63
2018-09-05T20:37:13.431Z,12.40
2018-09-05T20:39:41.920Z,10.10
2018-09-05T20:42:10.430Z,9.43
2018-09-05T20:44:38.893Z,9.60
2018-09-05T20:47:07.419Z,8.90
2018-09-05T20:49:35.891Z,9.40
2018-09-05T20:52:04.429Z,10.13
2018-09-05T20:54:32.952Z,9.23
2018-09-05T20:57:01.491Z,8.53
2018-09-05T20:59:30.003Z,11.47
2018-09-05T21:01:58.888Z,10.77
2018-09-05T21:04:27.426Z,10.63
2018-09-05T21:06:56.167Z,9.00
2018-09-05T21:09:24.956Z,11.23
2018-09-05T21:11:53.426Z,8.83
2018-09-05T21:14:22.157Z,9.13
2018-09-05T21:16:50.681Z,16.20
2018-09-05T21:19:19.174Z,8.80
2018-09-05T21:21:47.641Z,11.57
2018-09-05T21:24:16.434Z,9.70
2018-09-05T21:26:44.967Z,9.57
2018-09-05T21:29:13.454Z,11.23
2018-09-05T21:31:41.925Z,8.30
2018-09-05T21:34:10.482Z,9.90
2018-09-05T21:36:38.966Z,11.13
2018-09-05T21:39:08.733Z,10.00
2018-09-05T21:41:37.265Z,12.80
2018-09-05T21:44:05.807Z,11.07
2018-09-05T21:46:34.478Z,12.03
2018-09-05T21:49:02.981Z,10.50
2018-09-05T21:51:31.446Z,9.00
2018-09-05T21:53:59.975Z,13.10
2018-09-05T21:56:28.467Z,9.50
2018-09-05T21:58:57.020Z,10.80
2018-09-05T22:01:25.523Z,9.90
2018-09-05T22:03:54.038Z,10.50
2018-09-05T22:06:22.493Z,9.50
2018-09-05T22:08:51.355Z,13.80
2018-09-05T22:11:24.863Z,11.03
2018-09-05T22:13:53.636Z,12.20
2018-09-05T22:16:24.902Z,9.00
2018-09-05T22:18:53.991Z,14.70
2018-09-05T22:21:22.479Z,12.60
2018-09-05T22:23:50.983Z,9.70
2018-09-05T22:26:19.807Z,10.10
2018-09-05T22:28:48.328Z,8.73
2018-09-05T22:31:16.840Z,12.03
2018-09-05T22:33:45.660Z,12.37
2018-09-05T22:36:14.472Z,10.00
2018-09-05T22:38:43.356Z,10.80
2018-09-05T22:41:12.274Z,12.57
2018-09-05T22:43:52.219Z,10.20
2018-09-05T22:46:31.927Z,10.60
2018-09-05T22:51:23.732Z,10.33
2018-09-05T22:54:15.134Z,11.20
2018-09-05T22:58:03.728Z,12.10
2018-09-05T23:02:47.096Z,12.70
2018-09-05T23:05:57.972Z,10.77
2018-09-05T23:08:46.923Z,14.20
2018-09-05T23:11:59.022Z,11.90
2018-09-05T23:14:39.981Z,13.53
2018-09-05T23:17:20.013Z,10.90
2018-09-05T23:20:09.667Z,10.60
2018-09-05T23:22:49.821Z,13.43
2018-09-05T23:25:18.359Z,10.90
2018-09-05T23:27:46.931Z,11.63
2018-09-05T23:30:15.432Z,10.60
2018-09-05T23:32:44.499Z,12.97
2018-09-05T23:35:13.019Z,13.40
2018-09-05T23:37:41.496Z,12.33
2018-09-05T23:40:13.374Z,14.20
2018-09-05T23:42:42.555Z,12.27
2018-09-05T23:45:11.112Z,12.00
2018-09-05T23:47:39.648Z,12.47
2018-09-05T23:50:08.426Z,10.97
2018-09-05T23:52:37.138Z,11.87
2018-09-05T23:55:06.613Z,12.10
2018-09-05T23:57:35.154Z,16.93
